Time;durP1;ratioP1;P1;durP2;ratioP2;P2;SDS_P1;SDS_P2;PMS_P1;PMS_P2;Temp;Humidity;BMP_temperature;BMP_pressure;BME280_temperature;BME280_humidity;BME280_pressure;Samples;Min_cycle;Max_cycle;Signal;HPM_P1;HPM_P2
2023/01/29 00:04:45;;;;;;;1.30;1.20;;;;;;;18.65;35.79;102997.69;16131625;19;130964;-48
2023/01/29 00:10:07;;;;;;;2.63;1.40;;;;;;;18.63;35.79;102997.03;16129933;19;131605;-53
2023/01/29 00:15:29;;;;;;;3.17;1.92;;;;;;;18.57;35.73;103000.59;16131293;19;130736;-53
2023/01/29 00:20:51;;;;;;;2.17;1.50;;;;;;;18.52;35.51;103000.31;16131660;19;130525;-56
2023/01/29 00:26:13;;;;;;;2.20;1.90;;;;;;;18.48;35.96;102979.56;16129559;19;129614;-54
2023/01/29 00:31:35;;;;;;;3.88;2.15;;;;;;;18.45;35.47;102976.16;16129281;19;130967;-51
2023/01/29 00:37:03;;;;;;;2.25;1.55;;;;;;;18.41;35.95;102976.72;16130781;19;130924;-51
2023/01/29 00:48:05;;;;;;;2.47;1.83;;;;;;;18.34;35.60;102967.44;16128134;19;130020;-50
2023/01/29 00:53:28;;;;;;;3.42;2.10;;;;;;;18.30;35.73;102956.75;16127782;19;129313;-50
2023/01/29 00:58:50;;;;;;;2.47;1.85;;;;;;;18.25;35.86;102936.22;16130891;19;129795;-54
2023/01/29 01:04:12;;;;;;;2.97;1.98;;;;;;;18.22;35.88;102931.06;16129193;19;129682;-48
2023/01/29 01:15:16;;;;;;;2.25;2.05;;;;;;;18.13;35.71;102931.19;16125006;19;129877;-56
2023/01/29 01:20:38;;;;;;;2.10;1.80;;;;;;;18.12;35.52;102923.06;16126839;19;129632;-51
2023/01/29 01:26:00;;;;;;;2.90;2.30;;;;;;;18.08;35.83;102925.38;16121029;19;129357;-53
2023/01/29 01:31:22;;;;;;;3.15;2.25;;;;;;;18.05;35.67;102931.31;16121918;19;129590;-50
2023/01/29 01:36:44;;;;;;;2.47;2.28;;;;;;;18.03;35.46;102936.16;16122312;19;130083;-50
2023/01/29 01:42:11;;;;;;;3.45;2.60;;;;;;;18.02;35.55;102931.69;16125398;19;129433;-52
2023/01/29 01:47:42;;;;;;;3.17;2.35;;;;;;;18.00;35.43;102933.78;16125585;19;129603;-49
2023/01/29 01:53:09;;;;;;;3.42;2.00;;;;;;;17.97;35.21;102945.28;16125498;19;130251;-50
2023/01/29 01:58:37;;;;;;;3.33;2.50;;;;;;;17.92;35.44;102948.59;16124251;19;129696;-51
2023/01/29 02:10:12;;;;;;;3.23;2.33;;;;;;;17.88;35.40;102947.28;16121940;19;130538;-51
2023/01/29 02:15:34;;;;;;;3.75;2.33;;;;;;;17.85;35.44;102950.41;16120443;19;129606;-53
2023/01/29 02:21:30;;;;;;;3.20;2.42;;;;;;;17.83;35.55;102958.94;16117525;19;130562;-49
2023/01/29 02:26:59;;;;;;;2.65;2.38;;;;;;;17.80;35.52;102962.06;16118203;19;131909;-53
2023/01/29 02:32:33;;;;;;;3.40;2.58;;;;;;;17.78;35.31;102969.69;16121534;19;130296;-51
2023/01/29 02:38:00;;;;;;;4.05;2.47;;;;;;;17.75;35.13;102970.06;16113642;19;130703;-52
2023/01/29 02:43:46;;;;;;;3.50;2.40;;;;;;;17.73;35.24;102972.16;16117688;19;129352;-50
2023/01/29 02:49:20;;;;;;;3.20;2.35;;;;;;;17.72;35.04;102958.53;16120102;19;131425;-56
2023/01/29 02:54:51;;;;;;;3.22;2.33;;;;;;;17.69;35.04;102970.84;16115600;19;131109;-51
2023/01/29 03:00:17;;;;;;;2.95;2.10;;;;;;;17.66;35.10;102954.63;16117928;19;129553;-55
2023/01/29 03:05:42;;;;;;;2.03;1.83;;;;;;;17.63;35.05;102943.91;16121435;19;131376;-54
2023/01/29 03:11:06;;;;;;;3.20;2.50;;;;;;;17.61;34.99;102949.66;16120032;19;129458;-52
2023/01/29 03:16:42;;;;;;;2.97;2.45;;;;;;;17.59;35.29;102948.13;16116236;19;131603;-52
2023/01/29 03:22:07;;;;;;;3.58;2.33;;;;;;;17.56;35.08;102956.81;16121524;19;129515;-51
2023/01/29 03:33:18;;;;;;;2.42;2.15;;;;;;;17.51;35.13;102958.19;16115894;19;130629;-49
2023/01/29 03:38:40;;;;;;;3.30;2.30;;;;;;;17.49;35.44;102948.38;16116244;19;130443;-50
2023/01/29 03:44:20;;;;;;;3.60;2.40;;;;;;;17.49;35.12;102949.22;16115546;19;130823;-53
2023/01/29 03:50:24;;;;;;;2.53;2.10;;;;;;;17.46;35.27;102938.56;16115335;19;129538;-52
2023/01/29 03:56:05;;;;;;;2.40;1.95;;;;;;;17.43;35.07;102936.16;16117057;19;130288;-54
2023/01/29 04:01:43;;;;;;;2.50;2.25;;;;;;;17.41;34.92;102932.72;16117241;19;129411;-51
2023/01/29 04:07:16;;;;;;;3.75;2.80;;;;;;;17.38;35.29;102925.66;16117599;19;130319;-48
2023/01/29 04:12:44;;;;;;;2.15;1.95;;;;;;;17.37;35.08;102935.00;16114350;19;129567;-49
2023/01/29 04:18:06;;;;;;;3.05;2.53;;;;;;;17.36;35.25;102926.88;16115463;19;129473;-51
2023/01/29 04:23:28;;;;;;;2.25;1.92;;;;;;;17.34;35.26;102912.41;16116000;19;129902;-53
2023/01/29 04:29:15;;;;;;;2.58;2.00;;;;;;;17.33;34.91;102905.13;16114945;19;129972;-50
2023/01/29 04:35:02;;;;;;;2.55;1.90;;;;;;;17.31;34.80;102901.69;16114441;19;129929;-51
2023/01/29 04:40:39;;;;;;;;;;;;;;;17.23;35.16;102897.94;16115037;19;129592;-54
2023/01/29 04:46:01;;;;;;;2.87;2.00;;;;;;;17.24;35.17;102901.59;16131686;19;130397;-47
2023/01/29 04:51:59;;;;;;;3.08;2.25;;;;;;;17.24;35.22;102891.38;16128316;19;129855;-51
2023/01/29 04:57:28;;;;;;;2.58;2.00;;;;;;;17.22;35.11;102882.44;16125463;19;130090;-50
2023/01/29 05:02:50;;;;;;;1.95;1.75;;;;;;;17.19;35.09;102890.22;16129808;19;129775;-52
2023/01/29 05:08:15;;;;;;;3.00;2.10;;;;;;;17.18;34.79;102875.53;16130800;19;131610;-58
2023/01/29 05:13:40;;;;;;;2.08;1.75;;;;;;;17.18;34.91;102870.00;16126458;19;129486;-58
2023/01/29 05:19:02;;;;;;;2.83;1.98;;;;;;;17.15;35.22;102850.19;16130820;19;129565;-58
2023/01/29 05:24:25;;;;;;;1.90;1.70;;;;;;;17.14;34.90;102846.53;16128498;19;130240;-52
2023/01/29 05:29:47;;;;;;;2.22;2.00;;;;;;;17.13;34.90;102844.81;16126246;19;130957;-49
2023/01/29 05:35:09;;;;;;;3.83;1.80;;;;;;;17.12;35.08;102858.84;16124694;19;132509;-53
2023/01/29 05:40:30;;;;;;;2.38;2.10;;;;;;;17.10;35.01;102860.94;16125741;19;129346;-52
2023/01/29 05:45:59;;;;;;;2.55;2.10;;;;;;;17.09;34.94;102860.09;16127159;19;131107;-55
2023/01/29 05:51:21;;;;;;;2.30;1.80;;;;;;;17.07;35.10;102851.13;16121334;19;129930;-50
2023/01/29 05:56:43;;;;;;;2.53;1.88;;;;;;;17.05;35.22;102858.75;16122691;19;130061;-51
2023/01/29 06:02:05;;;;;;;2.22;2.03;;;;;;;17.04;35.32;102845.97;16125150;19;129355;-51
2023/01/29 06:07:27;;;;;;;3.17;1.90;;;;;;;17.01;34.96;102858.28;16123244;19;129576;-52
2023/01/29 06:12:48;;;;;;;1.98;1.77;;;;;;;17.01;35.26;102860.16;16123347;19;130155;-50
2023/01/29 06:18:10;;;;;;;2.00;1.80;;;;;;;16.97;34.98;102867.97;16125091;19;131320;-50
2023/01/29 06:23:32;;;;;;;2.30;2.08;;;;;;;16.97;34.84;102867.13;16125341;19;131313;-50
2023/01/29 06:28:54;;;;;;;2.30;2.08;;;;;;;16.97;34.94;102880.94;16122656;19;132125;-51
2023/01/29 06:34:15;;;;;;;2.38;2.08;;;;;;;16.94;35.15;102873.88;16122378;19;131242;-53
2023/01/29 06:39:37;;;;;;;2.50;2.08;;;;;;;16.98;34.78;102866.09;16122528;19;130376;-54
2023/01/29 06:44:59;;;;;;;1.65;1.55;;;;;;;17.29;35.13;102867.81;16123498;19;131271;-52
2023/01/29 06:50:21;;;;;;;2.33;1.70;;;;;;;17.89;34.49;102871.47;16121707;19;129790;-49
2023/01/29 06:55:49;;;;;;;1.92;1.65;;;;;;;18.53;34.02;102874.53;16126908;19;129703;-54
2023/01/29 07:01:12;;;;;;;1.92;1.73;;;;;;;19.08;33.48;102852.59;16123807;19;129534;-51
2023/01/29 07:06:53;;;;;;;1.63;1.50;;;;;;;19.55;32.76;102830.72;16120073;19;130233;-55
2023/01/29 07:12:15;;;;;;;1.98;1.60;;;;;;;19.85;32.62;102824.84;16119943;19;129791;-48
2023/01/29 07:17:38;;;;;;;1.90;1.70;;;;;;;19.95;32.40;102808.63;16117479;19;129659;-51
2023/01/29 07:23:00;;;;;;;1.77;1.50;;;;;;;19.92;32.39;102831.28;16119596;19;129640;-51
2023/01/29 07:28:21;;;;;;;1.80;1.50;;;;;;;19.81;32.11;102834.66;16117630;19;130176;-50
2023/01/29 07:33:43;;;;;;;1.80;1.60;;;;;;;19.61;32.13;102824.31;16116351;19;130032;-55
2023/01/29 07:39:05;;;;;;;2.47;1.70;;;;;;;19.41;32.46;102831.72;16120086;19;129586;-61
2023/01/29 07:44:27;;;;;;;6.10;1.98;;;;;;;19.22;32.35;102828.59;16114751;19;130115;-65
2023/01/29 07:49:48;;;;;;;3.60;2.20;;;;;;;19.03;32.49;102832.91;16116127;19;129464;-60
2023/01/29 07:55:10;;;;;;;3.17;2.15;;;;;;;18.86;32.93;102821.28;16115271;19;129318;-57
2023/01/29 08:00:32;;;;;;;3.22;2.03;;;;;;;18.71;32.95;102818.59;16116348;19;129894;-60
2023/01/29 08:05:54;;;;;;;3.53;1.80;;;;;;;18.55;33.07;102826.16;16114477;19;129726;-50
2023/01/29 08:11:16;;;;;;;5.65;1.92;;;;;;;18.47;33.42;102823.53;16114177;19;129506;-51
2023/01/29 08:16:37;;;;;;;7.82;2.15;;;;;;;18.43;33.32;102834.16;16121297;19;129405;-51
2023/01/29 08:21:59;;;;;;;3.70;2.22;;;;;;;18.58;33.29;102827.69;16130211;19;129389;-51
2023/01/29 08:27:21;;;;;;;2.08;1.88;;;;;;;18.90;32.79;102819.81;16129927;19;129465;-53
2023/01/29 08:32:43;;;;;;;2.60;1.88;;;;;;;19.32;32.40;102815.19;16130692;19;129608;-49
2023/01/29 08:38:05;;;;;;;4.30;1.70;;;;;;;19.80;32.17;102814.34;16131949;19;130523;-52
2023/01/29 08:43:27;;;;;;;3.05;1.83;;;;;;;20.17;31.93;102794.63;16126444;19;129486;-52
2023/01/29 08:48:48;;;;;;;2.70;1.73;;;;;;;20.41;31.31;102806.19;16129586;19;129310;-50
2023/01/29 08:54:10;;;;;;;3.80;1.58;;;;;;;20.51;31.52;102805.75;16128726;19;130619;-48
2023/01/29 08:59:32;;;;;;;4.00;1.70;;;;;;;20.56;31.30;102803.19;16125190;19;130065;-52
2023/01/29 09:04:54;;;;;;;7.18;2.30;;;;;;;20.68;31.13;102817.28;16126355;19;130841;-51
2023/01/29 09:10:16;;;;;;;3.38;2.20;;;;;;;20.87;31.12;102816.47;16127638;19;130086;-54
2023/01/29 09:15:38;;;;;;;6.75;1.60;;;;;;;20.99;30.71;102813.88;16125417;19;129540;-50
2023/01/29 09:21:01;;;;;;;5.18;2.13;;;;;;;21.02;30.65;102804.25;16126436;19;130633;-50
2023/01/29 09:26:23;;;;;;;5.90;1.80;;;;;;;20.98;30.79;102800.19;16124159;19;130460;-53
2023/01/29 09:31:45;;;;;;;3.97;2.22;;;;;;;20.85;30.95;102798.28;16125773;19;130785;-53
2023/01/29 09:37:07;;;;;;;7.28;1.58;;;;;;;20.66;31.59;102809.19;16127356;19;129481;-57
2023/01/29 09:42:47;;;;;;;10.05;1.95;;;;;;;20.47;31.81;102816.44;16122732;19;129451;-53
2023/01/29 09:48:11;;;;;;;4.43;1.40;;;;;;;20.26;31.71;102826.69;16124337;19;132429;-51
2023/01/29 09:53:44;;;;;;;3.25;1.65;;;;;;;20.10;32.16;102810.41;16124220;19;129657;-55
2023/01/29 09:59:11;;;;;;;6.35;1.40;;;;;;;19.90;32.26;102811.19;16125536;19;129668;-49
2023/01/29 10:05:02;;;;;;;2.78;1.52;;;;;;;19.73;32.31;102804.28;16122445;19;129374;-57
2023/01/29 10:10:38;;;;;;;3.88;1.77;;;;;;;19.56;32.91;102795.47;16123791;19;129632;-55
2023/01/29 10:16:40;;;;;;;2.60;1.40;;;;;;;19.40;32.97;102782.81;16124942;19;129616;-57
2023/01/29 10:22:20;;;;;;;2.20;1.27;;;;;;;19.31;33.25;102791.31;16120334;19;130130;-47
2023/01/29 10:27:48;;;;;;;4.30;1.40;;;;;;;19.19;33.02;102782.66;16125102;19;129637;-51
2023/01/29 10:33:24;;;;;;;7.43;1.63;;;;;;;19.10;33.43;102788.56;16123294;19;130381;-52
2023/01/29 10:38:47;;;;;;;1.70;1.47;;;;;;;19.00;33.46;102791.75;16121546;19;130694;-51
2023/01/29 10:44:30;;;;;;;5.88;2.00;;;;;;;18.91;32.88;102788.25;16121831;19;129404;-49
2023/01/29 10:50:14;;;;;;;7.45;2.40;;;;;;;18.94;32.71;102774.00;16118463;19;130015;-48
2023/01/29 10:56:14;;;;;;;7.63;2.47;;;;;;;19.10;32.49;102771.94;16119038;19;129370;-49
2023/01/29 11:01:43;;;;;;;6.90;1.98;;;;;;;19.29;32.69;102756.50;16117801;19;129671;-49
2023/01/29 11:07:05;;;;;;;4.20;1.70;;;;;;;19.49;32.52;102751.03;16119774;19;131634;-48
2023/01/29 11:12:32;;;;;;;7.13;1.58;;;;;;;19.66;31.91;102732.94;16120086;19;133108;-50
2023/01/29 11:18:12;;;;;;;5.68;2.30;;;;;;;19.83;31.91;102715.88;16120575;19;130719;-51
2023/01/29 11:23:33;;;;;;;2.97;1.42;;;;;;;19.94;32.02;102695.78;16116422;19;131629;-47
2023/01/29 11:28:55;;;;;;;11.05;1.88;;;;;;;20.02;32.01;102691.16;16114412;19;131824;-50
2023/01/29 11:34:20;;;;;;;3.58;1.60;;;;;;;20.07;31.50;102683.00;16114201;19;130935;-49
2023/01/29 11:39:45;;;;;;;9.30;2.10;;;;;;;20.06;31.95;102670.22;16117229;19;129658;-49
2023/01/29 11:45:28;;;;;;;10.80;2.78;;;;;;;20.04;31.99;102662.06;16116844;19;129491;-51
2023/01/29 11:50:59;;;;;;;5.43;1.70;;;;;;;20.19;31.88;102649.91;16122678;19;130601;-48
2023/01/29 11:56:25;;;;;;;4.45;1.90;;;;;;;20.37;31.80;102649.22;16130007;19;130839;-52
2023/01/29 12:01:47;;;;;;;6.22;1.98;;;;;;;20.54;31.21;102644.94;16130541;19;134915;-54
2023/01/29 12:07:17;;;;;;;5.50;1.90;;;;;;;20.68;31.00;102633.75;16130930;19;129263;-57
2023/01/29 12:12:41;;;;;;;4.80;1.55;;;;;;;20.68;31.34;102626.28;16135192;19;130565;-57
2023/01/29 12:18:19;;;;;;;3.33;1.60;;;;;;;20.66;31.20;102625.63;16120936;19;132543;-52
2023/01/29 12:24:00;;;;;;;5.25;1.77;;;;;;;20.60;31.44;102602.34;16114356;19;130684;-48
2023/01/29 12:29:46;;;;;;;4.80;2.00;;;;;;;20.52;31.46;102585.91;16127480;19;129832;-49
2023/01/29 12:35:21;;;;;;;3.43;1.80;;;;;;;20.43;31.14;102563.03;16127393;19;130624;-48
2023/01/29 12:40:54;;;;;;;5.25;1.92;;;;;;;20.34;31.26;102560.72;16128367;19;130772;-49
2023/01/29 12:46:28;;;;;;;4.43;1.67;;;;;;;20.20;31.02;102549.63;16131171;19;130970;-53
2023/01/29 12:51:53;;;;;;;4.18;1.80;;;;;;;20.05;31.23;102541.56;16129203;19;129906;-50
2023/01/29 12:57:30;;;;;;;8.27;2.80;;;;;;;19.90;31.15;102527.88;16126947;19;130729;-51
2023/01/29 13:03:02;;;;;;;7.95;2.28;;;;;;;19.75;31.29;102525.34;16121789;19;129560;-50
2023/01/29 13:08:31;;;;;;;3.60;2.63;;;;;;;19.60;31.76;102514.44;16125208;19;131239;-48
2023/01/29 13:13:58;;;;;;;4.43;2.15;;;;;;;19.47;31.46;102514.44;16127909;19;129760;-49
2023/01/29 13:19:27;;;;;;;5.55;2.90;;;;;;;19.34;31.77;102506.97;16123749;19;129867;-49
2023/01/29 13:24:50;;;;;;;9.35;2.85;;;;;;;19.20;31.66;102495.00;16126032;19;131130;-49
2023/01/29 13:30:31;;;;;;;12.57;2.95;;;;;;;19.13;31.85;102494.09;16122844;19;129934;-48
2023/01/29 13:35:58;;;;;;;10.57;3.28;;;;;;;19.04;31.87;102480.44;16123132;19;130748;-48
2023/01/29 13:41:32;;;;;;;8.25;2.97;;;;;;;19.12;31.78;102475.75;16124078;19;130253;-47
2023/01/29 13:46:56;;;;;;;8.38;2.50;;;;;;;19.25;31.51;102461.09;16122390;19;129603;-48
2023/01/29 13:52:35;;;;;;;12.10;2.30;;;;;;;19.41;31.37;102457.84;16125325;19;130104;-50
2023/01/29 13:57:59;;;;;;;3.78;2.13;;;;;;;19.51;30.89;102454.66;16123493;19;129522;-51
2023/01/29 14:03:23;;;;;;;8.05;2.55;;;;;;;19.60;30.89;102449.75;16122396;19;131179;-51
2023/01/29 14:08:46;;;;;;;5.70;2.72;;;;;;;19.73;30.84;102449.72;16119113;19;130296;-46
2023/01/29 14:14:46;;;;;;;5.22;2.53;;;;;;;19.87;30.49;102442.19;16117729;19;129972;-49
2023/01/29 14:20:19;;;;;;;8.60;2.63;;;;;;;20.06;30.10;102446.03;16116954;19;130456;-48
2023/01/29 14:25:41;;;;;;;8.15;2.15;;;;;;;20.23;29.92;102431.66;16109212;19;130970;-47
2023/01/29 14:31:06;;;;;;;5.45;1.92;;;;;;;20.38;29.97;102428.56;16115475;19;129995;-49
2023/01/29 14:36:37;;;;;;;6.37;2.13;;;;;;;20.43;30.15;102434.34;16117754;19;129559;-49
2023/01/29 14:42:01;;;;;;;5.65;1.70;;;;;;;20.44;30.13;102430.44;16123344;19;130982;-48
2023/01/29 14:47:26;;;;;;;6.47;2.13;;;;;;;20.39;29.79;102435.84;16114020;19;129989;-49
2023/01/29 14:52:52;;;;;;;3.20;1.50;;;;;;;20.36;29.96;102431.59;16118339;19;132095;-50
2023/01/29 14:58:24;;;;;;;4.88;1.65;;;;;;;20.36;29.93;102430.72;16112393;19;131675;-49
2023/01/29 15:03:54;;;;;;;9.25;1.73;;;;;;;20.33;30.24;102414.47;16116378;19;129664;-52
2023/01/29 15:09:40;;;;;;;7.25;1.50;;;;;;;20.31;30.22;102413.88;16116688;19;129294;-48
2023/01/29 15:15:08;;;;;;;7.25;1.40;;;;;;;20.24;30.21;102414.75;16117004;19;129496;-49
2023/01/29 15:20:35;;;;;;;4.90;1.50;;;;;;;20.20;30.25;102427.34;16116758;19;129520;-48
2023/01/29 15:26:03;;;;;;;5.93;1.40;;;;;;;20.12;30.65;102422.06;16117676;19;129217;-47
2023/01/29 15:31:27;;;;;;;4.40;1.33;;;;;;;20.04;30.67;102422.31;16115494;19;130523;-51
2023/01/29 15:36:49;;;;;;;7.70;1.80;;;;;;;19.91;30.78;102418.47;16118110;19;130302;-47
2023/01/29 15:42:22;;;;;;;3.53;1.35;;;;;;;19.80;31.14;102406.13;16117689;19;131272;-51
2023/01/29 15:47:44;;;;;;;5.30;1.40;;;;;;;19.68;31.35;102391.19;16111242;19;130045;-48
2023/01/29 15:53:11;;;;;;;3.95;1.10;;;;;;;19.56;31.16;102385.47;16117097;19;130112;-47
2023/01/29 15:58:33;;;;;;;6.13;1.50;;;;;;;19.48;31.43;102380.13;16112289;19;131137;-46
2023/01/29 16:03:59;;;;;;;5.53;1.20;;;;;;;19.39;31.49;102382.28;16114435;19;129927;-47
2023/01/29 16:09:24;;;;;;;3.70;1.40;;;;;;;19.31;31.45;102357.56;16110161;19;129601;-48
2023/01/29 16:14:49;;;;;;;18.42;1.88;;;;;;;19.21;31.87;102358.84;16107975;19;130544;-50
2023/01/29 16:20:44;;;;;;;3.80;1.48;;;;;;;19.11;31.57;102372.28;16111194;19;131057;-47
2023/01/29 16:26:08;;;;;;;3.42;1.80;;;;;;;19.02;31.38;102348.56;16111765;19;130072;-51
2023/01/29 16:31:31;;;;;;;5.75;1.92;;;;;;;18.92;31.49;102360.13;16110688;19;131727;-49
2023/01/29 16:36:55;;;;;;;5.90;2.50;;;;;;;18.82;31.34;102354.16;16115192;19;128944;-47
2023/01/29 16:42:18;;;;;;;4.60;2.30;;;;;;;18.75;31.34;102354.16;16125796;19;129344;-47
2023/01/29 16:47:40;;;;;;;6.78;3.75;;;;;;;18.80;31.26;102339.66;16127548;19;130367;-47
2023/01/29 16:53:11;;;;;;;12.02;4.68;;;;;;;18.94;30.70;102330.25;16127134;19;132919;-52
2023/01/29 16:58:33;;;;;;;10.55;4.55;;;;;;;19.13;30.78;102324.91;16125934;19;130200;-48
2023/01/29 17:04:01;;;;;;;11.75;5.32;;;;;;;19.36;30.35;102316.13;16126357;19;129554;-49
2023/01/29 17:09:28;;;;;;;7.93;4.30;;;;;;;19.55;29.95;102317.16;16123104;19;130266;-51
2023/01/29 17:14:59;;;;;;;8.35;3.53;;;;;;;19.74;29.74;102320.06;16125771;19;130396;-47
2023/01/29 17:20:21;;;;;;;5.25;3.58;;;;;;;19.87;29.57;102317.22;16124220;19;129235;-53
2023/01/29 17:25:45;;;;;;;7.55;3.05;;;;;;;19.97;29.36;102306.47;16125442;19;129487;-51
2023/01/29 17:31:07;;;;;;;6.68;3.10;;;;;;;20.07;29.81;102311.59;16119523;19;129914;-50
2023/01/29 17:36:29;;;;;;;5.72;2.80;;;;;;;20.11;29.47;102306.44;16116388;19;130098;-50
2023/01/29 17:41:53;;;;;;;6.68;3.15;;;;;;;20.07;29.64;102302.41;16114963;19;129616;-46
2023/01/29 17:47:14;;;;;;;18.50;3.55;;;;;;;20.00;29.84;102294.09;16105199;19;130956;-51
2023/01/29 17:52:36;;;;;;;13.05;3.47;;;;;;;19.92;30.29;102289.66;16116018;19;129478;-45
2023/01/29 17:57:58;;;;;;;17.70;3.70;;;;;;;19.83;30.83;102286.28;16117787;19;131889;-48
2023/01/29 18:03:20;;;;;;;15.43;2.65;;;;;;;19.74;30.87;102283.97;16121185;19;129453;-50
2023/01/29 18:08:42;;;;;;;16.35;4.18;;;;;;;19.62;31.02;102270.78;16121701;19;131260;-51
2023/01/29 18:14:03;;;;;;;12.82;3.92;;;;;;;19.53;30.84;102272.09;16121393;19;129618;-48
2023/01/29 18:19:34;;;;;;;11.85;2.92;;;;;;;19.48;31.55;102274.66;16120157;19;130146;-51
2023/01/29 18:24:56;;;;;;;11.82;3.15;;;;;;;19.49;31.49;102268.91;16120624;19;129408;-45
2023/01/29 18:30:18;;;;;;;10.77;3.28;;;;;;;19.61;31.41;102262.69;16117306;19;131857;-50
2023/01/29 18:35:40;;;;;;;11.48;2.72;;;;;;;19.75;31.41;102269.88;16120234;19;131517;-49
2023/01/29 18:41:11;;;;;;;16.80;4.18;;;;;;;19.90;31.84;102257.59;16121487;19;130106;-45
2023/01/29 18:46:32;;;;;;;17.08;3.35;;;;;;;20.01;31.52;102250.53;16119806;19;130582;-48
2023/01/29 18:51:54;;;;;;;15.55;3.38;;;;;;;20.12;31.86;102235.91;16117826;19;130665;-52
2023/01/29 18:57:16;;;;;;;12.75;3.22;;;;;;;20.21;31.77;102228.16;16117292;19;130701;-44
2023/01/29 19:02:58;;;;;;;16.10;3.35;;;;;;;20.28;31.61;102229.81;16109942;19;130967;-53
2023/01/29 19:08:20;;;;;;;10.80;3.05;;;;;;;20.48;31.74;102220.44;16113746;19;130246;-53
2023/01/29 19:13:41;;;;;;;11.98;2.42;;;;;;;20.79;31.23;102207.56;16118287;19;129612;-49
2023/01/29 19:19:03;;;;;;;9.20;2.80;;;;;;;20.99;30.97;102200.94;16117070;19;129590;-49
2023/01/29 19:24:26;;;;;;;7.88;2.83;;;;;;;21.15;30.71;102186.41;16114426;19;130806;-53
2023/01/29 19:29:48;;;;;;;13.25;2.78;;;;;;;21.22;30.74;102189.94;16114589;19;130054;-53
2023/01/29 19:35:09;;;;;;;8.63;2.40;;;;;;;21.20;30.78;102186.53;16116364;19;129684;-56
2023/01/29 19:40:31;;;;;;;10.40;2.38;;;;;;;21.14;31.22;102158.78;16119699;19;130964;-53
2023/01/29 19:45:59;;;;;;;7.43;2.30;;;;;;;21.06;31.43;102152.47;16117828;19;129042;-47
2023/01/29 19:51:22;;;;;;;20.27;2.88;;;;;;;21.02;31.21;102150.41;16118061;19;130523;-51
2023/01/29 19:56:43;;;;;;;9.20;2.30;;;;;;;21.07;31.33;102125.50;16122042;19;130208;-54
2023/01/29 20:02:06;;;;;;;11.60;3.00;;;;;;;21.09;31.44;102112.19;16108738;19;130395;-52
2023/01/29 20:07:27;;;;;;;17.17;2.88;;;;;;;21.08;31.24;102115.22;16114322;19;134327;-49
2023/01/29 20:12:49;;;;;;;8.48;3.08;;;;;;;21.10;31.00;102099.97;16125325;19;130415;-56
2023/01/29 20:18:13;;;;;;;7.03;2.10;;;;;;;21.18;31.45;102105.22;16129859;19;130202;-56
2023/01/29 20:23:35;;;;;;;9.55;2.63;;;;;;;21.39;30.88;102113.28;16127405;19;131195;-53
2023/01/29 20:28:59;;;;;;;6.32;2.60;;;;;;;21.64;30.75;102114.00;16129893;19;130745;-57
2023/01/29 20:34:21;;;;;;;5.65;1.98;;;;;;;21.92;30.67;102114.41;16126057;19;131176;-55
2023/01/29 20:39:42;;;;;;;4.72;1.67;;;;;;;22.16;30.51;102106.06;16130370;19;131960;-58
2023/01/29 20:45:05;;;;;;;4.05;1.90;;;;;;;22.39;30.29;102114.50;16128615;19;129644;-55
2023/01/29 20:50:27;;;;;;;5.00;1.88;;;;;;;22.58;29.82;102122.72;16127968;19;130131;-53
2023/01/29 20:55:48;;;;;;;6.07;2.20;;;;;;;22.74;30.03;102112.72;16132087;19;131302;-53
2023/01/29 21:01:15;;;;;;;3.03;1.60;;;;;;;22.83;29.93;102110.41;16130229;19;130294;-52
2023/01/29 21:06:37;;;;;;;6.53;2.05;;;;;;;22.91;30.11;102103.63;16125033;19;129237;-56
2023/01/29 21:11:59;;;;;;;4.30;1.60;;;;;;;22.87;29.96;102092.94;16128805;19;129510;-51
2023/01/29 21:17:20;;;;;;;2.65;1.40;;;;;;;22.81;30.15;102099.50;16141763;19;129519;-57
2023/01/29 21:22:42;;;;;;;3.83;1.45;;;;;;;22.74;29.89;102091.28;16132101;19;132921;-56
2023/01/29 21:28:05;;;;;;;4.72;2.00;;;;;;;22.66;29.80;102102.81;16119639;19;131785;-51
2023/01/29 21:33:26;;;;;;;12.82;2.22;;;;;;;22.58;29.87;102111.56;16122666;19;129884;-55
2023/01/29 21:38:48;;;;;;;5.50;2.15;;;;;;;22.41;30.13;102117.88;16123444;19;129960;-55
2023/01/29 21:44:11;;;;;;;6.78;2.20;;;;;;;22.23;29.80;102104.91;16127468;19;131653;-57
2023/01/29 21:49:32;;;;;;;2.67;1.50;;;;;;;22.04;30.01;102081.84;16125922;19;131550;-56
2023/01/29 21:54:54;;;;;;;7.45;1.95;;;;;;;21.82;30.16;102082.44;16124479;19;130650;-50
2023/01/29 22:00:17;;;;;;;7.40;1.98;;;;;;;21.63;30.30;102089.19;16124271;19;129870;-50
2023/01/29 22:05:39;;;;;;;7.13;1.90;;;;;;;21.44;30.21;102103.13;16122623;19;129808;-47
2023/01/29 22:11:05;;;;;;;5.38;1.98;;;;;;;21.27;30.76;102113.25;16123285;19;130877;-49
2023/01/29 22:16:28;;;;;;;3.42;2.08;;;;;;;21.08;30.41;102092.97;16124844;19;133174;-50
2023/01/29 22:21:51;;;;;;;3.50;1.75;;;;;;;20.93;31.01;102069.19;16120664;19;130345;-49
2023/01/29 22:27:14;;;;;;;3.80;1.63;;;;;;;20.79;31.11;102035.16;16111076;19;130477;-50
2023/01/29 22:32:36;;;;;;;5.22;1.70;;;;;;;20.67;30.83;102000.84;16111538;19;131147;-50
2023/01/29 22:37:58;;;;;;;3.03;1.70;;;;;;;20.53;31.09;101986.25;16119194;19;131004;-49
2023/01/29 22:43:20;;;;;;;1.85;1.45;;;;;;;20.42;31.45;101968.44;16118253;19;129452;-51
2023/01/29 22:48:42;;;;;;;4.60;1.60;;;;;;;20.31;31.50;101988.66;16122771;19;129577;-49
2023/01/29 22:54:04;;;;;;;3.30;1.50;;;;;;;20.21;31.39;102020.59;16121211;19;129309;-50
2023/01/29 22:59:26;;;;;;;3.60;1.55;;;;;;;20.14;31.82;102011.50;16117461;19;130361;-52
2023/01/29 23:04:49;;;;;;;2.38;1.45;;;;;;;20.05;31.54;102024.84;16115612;19;131356;-52
2023/01/29 23:10:13;;;;;;;1.92;1.50;;;;;;;19.95;31.44;102008.66;16118698;19;129946;-51
2023/01/29 23:15:35;;;;;;;2.70;1.80;;;;;;;19.87;31.67;101988.69;16116396;19;130620;-49
2023/01/29 23:20:57;;;;;;;3.28;1.70;;;;;;;19.79;31.90;101946.22;16116851;19;130493;-47
2023/01/29 23:31:59;;;;;;;2.70;1.60;;;;;;;19.65;31.45;101948.31;16114389;19;130691;-50
2023/01/29 23:37:21;;;;;;;2.47;1.65;;;;;;;19.57;31.90;101936.63;16115602;19;130837;-50
2023/01/29 23:42:43;;;;;;;2.83;1.40;;;;;;;19.52;31.53;101953.97;16118943;19;129909;-49
2023/01/29 23:48:05;;;;;;;1.52;1.25;;;;;;;19.46;31.91;101932.66;16117230;19;130116;-49
2023/01/29 23:53:27;;;;;;;1.38;1.20;;;;;;;19.38;31.98;101918.03;16115813;19;129274;-49
2023/01/29 23:58:55;;;;;;;2.67;1.50;;;;;;;19.35;31.46;101921.25;16115420;19;129557;-50
